createdAt,value
2022-09-09T00:01:27.814Z,33.50
2022-09-09T00:04:06.724Z,33.49
2022-09-09T00:06:44.402Z,33.47
2022-09-09T00:09:21.432Z,33.46
2022-09-09T00:11:57.794Z,33.46
2022-09-09T00:14:51.983Z,33.42
2022-09-09T00:17:38.505Z,33.41
2022-09-09T00:20:19.925Z,33.40
2022-09-09T00:23:02.202Z,33.40
2022-09-09T00:25:44.692Z,33.39
2022-09-09T00:28:25.064Z,33.39
2022-09-09T00:30:57.095Z,33.38
2022-09-09T00:33:30.228Z,33.39
2022-09-09T00:36:04.524Z,33.40
2022-09-09T00:38:42.427Z,33.40
2022-09-09T00:41:25.461Z,33.38
2022-09-09T00:44:07.418Z,33.38
2022-09-09T00:47:07.860Z,33.37
2022-09-09T00:50:03.989Z,33.35
2022-09-09T00:52:51.583Z,33.34
2022-09-09T00:55:35.747Z,33.31
2022-09-09T00:58:12.203Z,33.30
2022-09-09T01:00:48.785Z,33.31
2022-09-09T01:03:36.657Z,33.29
2022-09-09T01:06:19.495Z,33.27
2022-09-09T01:09:13.697Z,33.26
2022-09-09T01:12:01.052Z,33.24
2022-09-09T01:14:53.585Z,33.21
2022-09-09T01:17:31.495Z,33.19
2022-09-09T01:20:14.435Z,33.18
2022-09-09T01:23:00.386Z,33.19
2022-09-09T01:26:11.272Z,33.16
2022-09-09T01:28:47.155Z,33.15
2022-09-09T01:31:23.574Z,33.14
2022-09-09T01:33:54.370Z,33.13
2022-09-09T01:36:39.254Z,33.14
2022-09-09T01:39:10.213Z,33.12
2022-09-09T01:41:42.143Z,33.11
2022-09-09T01:44:15.608Z,33.11
2022-09-09T01:46:45.769Z,33.08
2022-09-09T01:49:16.807Z,33.08
2022-09-09T01:51:52.843Z,33.08
2022-09-09T01:54:26.429Z,33.07
2022-09-09T01:57:15.767Z,33.09
2022-09-09T02:00:15.088Z,33.05
2022-09-09T02:03:03.508Z,33.03
2022-09-09T02:05:41.623Z,33.02
2022-09-09T02:08:19.916Z,33.02
2022-09-09T02:11:00.144Z,33.02
2022-09-09T02:13:32.797Z,32.99
2022-09-09T02:16:12.596Z,32.99
2022-09-09T02:18:51.718Z,32.97
2022-09-09T02:21:23.632Z,32.96
2022-09-09T02:23:57.615Z,32.95
2022-09-09T02:26:31.651Z,32.94
2022-09-09T02:29:08.463Z,32.93
2022-09-09T02:31:42.878Z,32.92
2022-09-09T02:34:16.396Z,32.91
2022-09-09T02:36:51.835Z,32.89
2022-09-09T02:39:23.288Z,32.87
2022-09-09T02:41:54.207Z,32.86
2022-09-09T02:44:25.204Z,32.85
2022-09-09T02:47:30.167Z,32.84
2022-09-09T02:50:18.935Z,32.82
2022-09-09T02:53:09.724Z,32.81
2022-09-09T02:55:46.322Z,32.80
2022-09-09T02:58:21.183Z,32.81
2022-09-09T03:00:54.063Z,32.80
2022-09-09T03:03:26.417Z,32.81
2022-09-09T03:05:56.450Z,32.82
2022-09-09T03:08:29.095Z,32.81
2022-09-09T03:11:02.747Z,32.82
2022-09-09T03:13:32.967Z,32.81
2022-09-09T03:16:05.614Z,32.79
2022-09-09T03:18:37.495Z,32.77
2022-09-09T03:21:09.048Z,32.77
2022-09-09T03:23:40.905Z,32.77
2022-09-09T03:26:23.897Z,32.76
2022-09-09T03:28:54.926Z,32.74
2022-09-09T03:31:27.202Z,32.73
2022-09-09T03:34:00.712Z,32.72
2022-09-09T03:36:31.695Z,32.71
2022-09-09T03:39:04.390Z,32.69
2022-09-09T03:41:35.705Z,32.68
2022-09-09T03:44:07.055Z,32.67
2022-09-09T03:46:37.718Z,32.67
2022-09-09T03:49:11.738Z,32.67
2022-09-09T03:51:42.448Z,32.67
2022-09-09T03:54:12.535Z,32.66
2022-09-09T03:56:43.840Z,32.66
2022-09-09T03:59:15.711Z,32.63
2022-09-09T04:01:47.019Z,32.60
2022-09-09T04:04:19.594Z,32.57
2022-09-09T04:06:49.961Z,32.52
2022-09-09T04:09:20.713Z,32.49
2022-09-09T04:11:50.894Z,32.44
2022-09-09T04:14:21.473Z,32.42
2022-09-09T04:16:52.092Z,32.41
2022-09-09T04:19:24.446Z,32.43
2022-09-09T04:21:55.172Z,32.45
2022-09-09T04:24:28.934Z,32.47
2022-09-09T04:26:59.623Z,32.50
2022-09-09T04:29:30.219Z,32.54
2022-09-09T04:32:00.896Z,32.58
2022-09-09T04:34:34.331Z,32.63
2022-09-09T04:37:04.218Z,32.66
2022-09-09T04:39:34.356Z,32.70
2022-09-09T04:42:04.863Z,32.74
2022-09-09T04:44:36.933Z,32.78
2022-09-09T04:47:08.651Z,32.82
2022-09-09T04:49:42.447Z,32.86
2022-09-09T04:52:13.053Z,32.90
2022-09-09T04:54:43.599Z,32.95
2022-09-09T04:57:18.813Z,32.99
2022-09-09T04:59:50.195Z,33.03
2022-09-09T05:02:20.431Z,33.04
2022-09-09T05:04:53.103Z,33.09
2022-09-09T05:07:23.318Z,33.13
2022-09-09T05:09:53.577Z,33.16
2022-09-09T05:12:25.393Z,33.21
2022-09-09T05:14:56.375Z,33.26
2022-09-09T05:17:26.829Z,33.32
2022-09-09T05:19:59.036Z,33.37
2022-09-09T05:22:29.888Z,33.42
2022-09-09T05:25:00.539Z,33.46
2022-09-09T05:27:32.971Z,33.50
2022-09-09T05:30:03.586Z,33.54
2022-09-09T05:32:35.710Z,33.57
2022-09-09T05:35:09.137Z,33.62
2022-09-09T05:37:40.587Z,33.67
2022-09-09T05:40:12.952Z,33.73
2022-09-09T05:42:44.284Z,33.80
2022-09-09T05:45:15.543Z,33.86
2022-09-09T05:47:46.051Z,33.93
2022-09-09T05:50:19.055Z,33.99
2022-09-09T05:52:50.359Z,34.04
2022-09-09T05:55:21.137Z,34.10
2022-09-09T05:57:53.310Z,34.17
2022-09-09T06:00:24.389Z,34.22
2022-09-09T06:02:57.269Z,34.26
2022-09-09T06:05:30.043Z,34.29
2022-09-09T06:08:02.024Z,34.33
2022-09-09T06:10:32.901Z,34.37
2022-09-09T06:13:03.516Z,34.43
2022-09-09T06:15:37.143Z,34.46
2022-09-09T06:18:07.882Z,34.45
2022-09-09T06:20:40.640Z,34.48
2022-09-09T06:23:10.770Z,34.50
2022-09-09T06:25:42.306Z,34.53
2022-09-09T06:28:12.979Z,34.56
2022-09-09T06:30:43.723Z,34.58
2022-09-09T06:33:14.337Z,34.61
2022-09-09T06:35:55.235Z,34.67
2022-09-09T06:38:27.151Z,34.70
2022-09-09T06:40:59.825Z,34.76
2022-09-09T06:43:30.943Z,34.82
2022-09-09T06:46:03.461Z,34.88
2022-09-09T06:48:35.443Z,34.95
2022-09-09T06:51:11.368Z,35.01
2022-09-09T06:53:43.678Z,35.08
2022-09-09T06:56:27.563Z,35.13
2022-09-09T06:59:00.551Z,35.13
2022-09-09T07:01:34.103Z,35.15
2022-09-09T07:04:10.345Z,35.19
2022-09-09T07:06:45.687Z,35.25
2022-09-09T07:09:19.134Z,35.32
2022-09-09T07:11:53.072Z,35.39
2022-09-09T07:14:24.414Z,35.46
2022-09-09T07:16:59.318Z,35.49
2022-09-09T07:19:30.022Z,35.55
2022-09-09T07:22:04.243Z,35.60
2022-09-09T07:24:34.434Z,35.67
2022-09-09T07:27:04.842Z,35.70
2022-09-09T07:29:35.080Z,35.74
2022-09-09T07:32:06.286Z,35.78
2022-09-09T07:34:37.391Z,35.80
2022-09-09T07:37:13.167Z,35.85
2022-09-09T07:39:43.439Z,35.89
2022-09-09T07:42:14.968Z,35.96
2022-09-09T07:44:45.646Z,36.01
2022-09-09T07:47:15.994Z,36.06
2022-09-09T07:49:47.587Z,36.08
2022-09-09T07:52:21.904Z,36.13
2022-09-09T07:54:53.884Z,36.17
2022-09-09T07:57:25.221Z,36.21
2022-09-09T07:59:55.942Z,36.26
2022-09-09T08:02:27.095Z,36.30
2022-09-09T08:04:57.753Z,36.35
2022-09-09T08:07:29.930Z,36.39
2022-09-09T08:10:00.320Z,36.42
2022-09-09T08:12:31.145Z,36.43
2022-09-09T08:15:05.150Z,36.44
2022-09-09T08:17:36.023Z,36.47
2022-09-09T08:20:07.658Z,36.50
2022-09-09T08:22:40.172Z,36.53
2022-09-09T08:25:11.883Z,36.54
2022-09-09T08:27:41.959Z,36.55
2022-09-09T08:30:14.431Z,36.56
2022-09-09T08:32:46.011Z,36.59
2022-09-09T08:35:19.397Z,36.59
2022-09-09T08:37:51.730Z,36.61
2022-09-09T08:40:40.929Z,36.64
2022-09-09T08:43:11.745Z,36.66
2022-09-09T08:45:53.543Z,36.69
2022-09-09T08:48:48.019Z,36.73
2022-09-09T08:51:19.114Z,36.75
2022-09-09T08:53:59.016Z,36.81
2022-09-09T08:56:35.323Z,36.85
2022-09-09T08:59:07.741Z,36.86
2022-09-09T09:02:04.646Z,36.88
2022-09-09T09:04:55.859Z,36.87
2022-09-09T09:07:45.214Z,36.88
2022-09-09T09:10:48.392Z,36.83
2022-09-09T09:13:24.522Z,36.80
2022-09-09T09:16:02.548Z,36.81
2022-09-09T09:18:33.053Z,36.80
2022-09-09T09:21:13.501Z,36.81
2022-09-09T09:23:52.920Z,36.84
2022-09-09T09:26:29.264Z,36.88
2022-09-09T09:29:04.559Z,36.92
2022-09-09T09:31:34.703Z,36.94
2022-09-09T09:34:05.104Z,36.96
2022-09-09T09:36:48.037Z,36.96
2022-09-09T09:42:23.872Z,36.95
2022-09-09T09:44:53.983Z,36.96
2022-09-09T09:47:26.350Z,36.94
2022-09-09T09:50:00.174Z,36.91
2022-09-09T09:52:33.493Z,36.89
2022-09-09T09:55:08.855Z,36.92
2022-09-09T09:57:41.518Z,36.93
2022-09-09T10:00:19.737Z,36.93
2022-09-09T10:02:53.381Z,36.91
2022-09-09T10:05:28.006Z,36.91
2022-09-09T10:08:08.200Z,36.93
2022-09-09T10:10:58.997Z,36.93
2022-09-09T10:13:43.545Z,36.94
2022-09-09T10:16:50.033Z,36.97
2022-09-09T10:19:35.129Z,36.97
2022-09-09T10:22:25.734Z,36.97
2022-09-09T10:25:34.241Z,36.92
2022-09-09T10:28:59.718Z,36.90
2022-09-09T10:31:45.187Z,36.88
2022-09-09T10:34:36.715Z,36.88
2022-09-09T10:37:24.995Z,36.90
2022-09-09T10:40:16.816Z,36.91
2022-09-09T10:42:48.525Z,36.92
2022-09-09T10:45:35.173Z,36.95
2022-09-09T10:48:32.475Z,36.98
2022-09-09T10:51:26.889Z,37.00
2022-09-09T10:54:27.399Z,37.02
2022-09-09T10:57:07.137Z,37.04
2022-09-09T10:59:47.118Z,37.07
2022-09-09T11:02:29.619Z,37.08
2022-09-09T11:05:09.738Z,37.08
2022-09-09T11:07:46.664Z,37.10
2022-09-09T11:10:29.629Z,37.08
2022-09-09T11:13:08.787Z,37.07
2022-09-09T11:15:49.282Z,37.06
2022-09-09T11:18:25.308Z,37.03
2022-09-09T11:21:03.021Z,37.02
2022-09-09T11:23:47.105Z,37.02
2022-09-09T11:26:29.013Z,37.02
2022-09-09T11:29:58.785Z,37.05
2022-09-09T11:33:04.491Z,36.96
2022-09-09T11:35:51.385Z,36.92
2022-09-09T11:38:29.621Z,36.89
2022-09-09T11:41:03.646Z,36.88
2022-09-09T11:43:43.336Z,36.88
2022-09-09T11:46:16.714Z,36.88
2022-09-09T11:49:00.318Z,36.89
2022-09-09T11:51:37.187Z,36.89
2022-09-09T11:54:41.372Z,36.89
2022-09-09T11:57:31.688Z,36.89
2022-09-09T12:00:02.125Z,36.88
2022-09-09T12:02:33.683Z,36.90
2022-09-09T12:05:11.337Z,36.93
2022-09-09T12:07:52.456Z,36.91
2022-09-09T12:10:30.504Z,36.87
2022-09-09T12:13:18.898Z,36.85
2022-09-09T12:15:55.076Z,36.85
2022-09-09T12:18:28.754Z,36.85
2022-09-09T12:21:11.304Z,36.86
2022-09-09T12:24:01.724Z,36.84
2022-09-09T12:26:46.011Z,36.82
2022-09-09T12:29:30.677Z,36.83
2022-09-09T12:32:10.379Z,36.82
2022-09-09T12:34:44.788Z,36.81
2022-09-09T12:37:30.462Z,36.79
2022-09-09T12:40:06.057Z,36.75
2022-09-09T12:42:41.186Z,36.70
2022-09-09T12:45:22.792Z,36.66
2022-09-09T12:48:03.133Z,36.63
2022-09-09T12:50:36.415Z,36.60
2022-09-09T12:53:17.655Z,36.56
2022-09-09T12:56:00.264Z,36.51
2022-09-09T12:58:34.300Z,36.45
2022-09-09T13:01:07.152Z,36.41
2022-09-09T13:03:47.067Z,36.38
2022-09-09T13:06:28.560Z,36.37
2022-09-09T13:09:02.588Z,36.35
2022-09-09T13:11:43.628Z,36.33
2022-09-09T13:14:22.163Z,36.26
2022-09-09T13:17:02.274Z,36.24
2022-09-09T13:19:38.779Z,36.23
2022-09-09T13:22:18.043Z,36.21
2022-09-09T13:24:48.868Z,36.20
2022-09-09T13:27:33.757Z,36.20
2022-09-09T13:30:04.744Z,36.18
2022-09-09T13:32:35.127Z,36.17
2022-09-09T13:35:08.113Z,36.16
2022-09-09T13:37:42.487Z,36.15
2022-09-09T13:40:23.596Z,36.13
2022-09-09T13:43:01.017Z,36.12
2022-09-09T13:45:32.295Z,36.08
2022-09-09T13:48:16.075Z,36.08
2022-09-09T13:50:58.118Z,36.00
2022-09-09T13:53:28.909Z,35.94
2022-09-09T13:55:59.580Z,35.90
2022-09-09T13:58:31.291Z,35.84
2022-09-09T14:01:02.017Z,35.80
2022-09-09T14:03:35.182Z,35.78
2022-09-09T14:06:04.999Z,35.75
2022-09-09T14:08:38.621Z,35.74
2022-09-09T14:11:10.214Z,35.74
2022-09-09T14:13:41.768Z,35.74
2022-09-09T14:16:13.104Z,35.71
2022-09-09T14:18:43.421Z,35.69
2022-09-09T14:21:13.609Z,35.69
2022-09-09T14:23:43.991Z,35.66
2022-09-09T14:26:14.740Z,35.63
2022-09-09T14:28:56.005Z,35.59
2022-09-09T14:31:27.512Z,35.55
2022-09-09T14:33:57.954Z,35.54
2022-09-09T14:36:28.757Z,35.53
2022-09-09T14:38:59.843Z,35.51
2022-09-09T14:41:30.961Z,35.50
2022-09-09T14:44:03.512Z,35.50
2022-09-09T14:46:35.333Z,35.46
2022-09-09T14:49:06.160Z,35.45
2022-09-09T14:51:37.911Z,35.40
2022-09-09T14:54:12.889Z,35.36
2022-09-09T14:56:45.926Z,35.33
2022-09-09T14:59:19.590Z,35.30
2022-09-09T15:01:51.401Z,35.26
2022-09-09T15:04:21.730Z,35.23
2022-09-09T15:06:53.896Z,35.20
2022-09-09T15:09:24.583Z,35.19
2022-09-09T15:11:54.332Z,35.18
2022-09-09T15:14:27.610Z,35.15
2022-09-09T15:16:57.343Z,35.13
2022-09-09T15:19:28.655Z,35.11
2022-09-09T15:21:59.149Z,35.09
2022-09-09T15:24:29.587Z,35.08
2022-09-09T15:27:00.148Z,35.06
2022-09-09T15:29:32.499Z,35.07
2022-09-09T15:32:03.068Z,35.06
2022-09-09T15:34:33.775Z,35.06
2022-09-09T15:37:04.426Z,35.06
2022-09-09T15:39:38.721Z,35.02
2022-09-09T15:42:09.867Z,34.98
2022-09-09T15:44:45.597Z,34.96
2022-09-09T15:47:16.818Z,34.93
2022-09-09T15:49:55.185Z,34.91
2022-09-09T15:52:25.197Z,34.89
2022-09-09T15:54:55.741Z,34.87
2022-09-09T15:57:26.423Z,34.87
2022-09-09T15:59:58.521Z,34.86
2022-09-09T16:02:29.072Z,34.86
2022-09-09T16:04:59.627Z,34.86
2022-09-09T16:07:29.503Z,34.85
2022-09-09T16:10:00.586Z,34.85
2022-09-09T16:12:31.272Z,34.85
2022-09-09T16:15:03.890Z,34.84
2022-09-09T16:17:38.718Z,34.82
2022-09-09T16:20:10.384Z,34.81
2022-09-09T16:22:41.425Z,34.79
2022-09-09T16:25:12.718Z,34.79
2022-09-09T16:27:42.979Z,34.78
2022-09-09T16:30:16.506Z,34.75
2022-09-09T16:32:47.330Z,34.72
2022-09-09T16:35:18.046Z,34.69
2022-09-09T16:37:48.788Z,34.70
2022-09-09T16:40:18.819Z,34.69
2022-09-09T16:42:49.342Z,34.68
2022-09-09T16:45:22.285Z,34.66
2022-09-09T16:47:52.847Z,34.64
2022-09-09T16:50:22.937Z,34.63
2022-09-09T16:52:54.339Z,34.63
2022-09-09T16:55:24.885Z,34.62
2022-09-09T16:57:55.484Z,34.60
2022-09-09T17:00:28.544Z,34.59
2022-09-09T17:02:59.602Z,34.58
2022-09-09T17:05:34.680Z,34.58
2022-09-09T17:08:06.956Z,34.55
2022-09-09T17:10:39.332Z,34.54
2022-09-09T17:13:12.674Z,34.53
2022-09-09T17:15:47.471Z,34.53
2022-09-09T17:18:18.564Z,34.53
2022-09-09T17:20:49.624Z,34.52
2022-09-09T17:23:21.313Z,34.53
2022-09-09T17:26:01.575Z,34.54
2022-09-09T17:28:32.723Z,34.52
2022-09-09T17:31:08.217Z,34.54
2022-09-09T17:33:41.001Z,34.53
2022-09-09T17:36:15.634Z,34.53
2022-09-09T17:38:48.313Z,34.52
2022-09-09T17:41:23.032Z,34.53
2022-09-09T17:43:54.420Z,34.52
2022-09-09T17:46:29.221Z,34.53
2022-09-09T17:49:02.848Z,34.52
2022-09-09T17:51:36.139Z,34.53
2022-09-09T17:54:10.485Z,34.52
2022-09-09T17:56:42.867Z,34.52
2022-09-09T17:59:15.469Z,34.51
2022-09-09T18:01:51.633Z,34.51
2022-09-09T18:04:22.901Z,34.49
2022-09-09T18:06:56.263Z,34.48
2022-09-09T18:09:29.687Z,34.47
2022-09-09T18:12:03.077Z,34.45
2022-09-09T18:14:35.636Z,34.43
2022-09-09T18:17:09.650Z,34.41
2022-09-09T18:19:40.170Z,34.40
2022-09-09T18:22:10.087Z,34.39
2022-09-09T18:24:41.462Z,34.38
2022-09-09T18:27:17.879Z,34.38
2022-09-09T18:29:48.776Z,34.38
2022-09-09T18:32:20.580Z,34.38
2022-09-09T18:34:55.331Z,34.38
2022-09-09T18:37:26.634Z,34.38
2022-09-09T18:39:56.547Z,34.37
2022-09-09T18:42:27.142Z,34.38
2022-09-09T18:44:59.269Z,34.38
2022-09-09T18:47:34.580Z,34.37
2022-09-09T18:50:05.108Z,34.38
2022-09-09T18:52:36.234Z,34.37
2022-09-09T18:55:07.193Z,34.36
2022-09-09T18:57:38.942Z,34.36
2022-09-09T19:00:12.912Z,34.34
2022-09-09T19:02:44.838Z,34.33
2022-09-09T19:05:15.426Z,34.31
2022-09-09T19:07:45.997Z,34.31
2022-09-09T19:10:20.678Z,34.31
2022-09-09T19:12:50.926Z,34.30
2022-09-09T19:15:21.680Z,34.30
2022-09-09T19:17:53.712Z,34.27
2022-09-09T19:20:24.537Z,34.26
2022-09-09T19:22:54.908Z,34.23
2022-09-09T19:25:25.501Z,34.23
2022-09-09T19:27:55.873Z,34.22
2022-09-09T19:30:26.789Z,34.21
2022-09-09T19:32:59.481Z,34.20
2022-09-09T19:35:29.934Z,34.19
2022-09-09T19:38:01.857Z,34.19
2022-09-09T19:40:32.277Z,34.18
2022-09-09T19:43:02.338Z,34.18
2022-09-09T19:45:32.636Z,34.16
2022-09-09T19:48:06.781Z,34.16
2022-09-09T19:50:39.390Z,34.15
2022-09-09T19:53:09.672Z,34.15
2022-09-09T19:55:42.532Z,34.15
2022-09-09T19:58:12.469Z,34.14
2022-09-09T20:00:43.169Z,34.13
2022-09-09T20:03:19.601Z,34.13
2022-09-09T20:05:51.718Z,34.13
2022-09-09T20:08:21.644Z,34.11
2022-09-09T20:10:56.232Z,34.10
2022-09-09T20:13:26.070Z,34.07
2022-09-09T20:16:03.071Z,34.06
2022-09-09T20:18:37.475Z,34.04
2022-09-09T20:21:10.453Z,34.03
2022-09-09T20:23:40.977Z,34.03
2022-09-09T20:26:15.367Z,34.03
2022-09-09T20:28:47.419Z,34.03
2022-09-09T20:31:20.091Z,34.02
2022-09-09T20:33:53.235Z,34.03
2022-09-09T20:36:27.542Z,34.02
2022-09-09T20:39:00.284Z,34.03
2022-09-09T20:41:33.390Z,34.03
2022-09-09T20:44:06.685Z,34.02
2022-09-09T20:46:39.966Z,34.02
2022-09-09T20:49:14.452Z,34.01
2022-09-09T20:51:44.862Z,33.99
2022-09-09T20:54:17.793Z,33.99
2022-09-09T20:56:50.091Z,33.99
2022-09-09T20:59:23.865Z,33.99
2022-09-09T21:01:54.892Z,33.99
2022-09-09T21:04:28.242Z,33.98
2022-09-09T21:06:58.525Z,33.97
2022-09-09T21:09:28.276Z,33.95
2022-09-09T21:11:58.645Z,33.94
2022-09-09T21:14:29.232Z,33.94
2022-09-09T21:17:00.025Z,33.92
2022-09-09T21:19:32.145Z,33.91
2022-09-09T21:22:02.628Z,33.91
2022-09-09T21:24:33.050Z,33.91
2022-09-09T21:27:03.289Z,33.91
2022-09-09T21:29:33.744Z,33.90
2022-09-09T21:32:04.019Z,33.90
2022-09-09T21:34:37.636Z,33.90
2022-09-09T21:37:09.943Z,33.88
2022-09-09T21:39:41.005Z,33.87
2022-09-09T21:42:11.678Z,33.87
2022-09-09T21:44:42.284Z,33.86
2022-09-09T21:47:12.813Z,33.87
2022-09-09T21:49:44.885Z,33.87
2022-09-09T21:52:16.519Z,33.86
2022-09-09T21:54:47.060Z,33.85
2022-09-09T21:57:16.958Z,33.84
2022-09-09T21:59:48.045Z,33.84
2022-09-09T22:02:19.035Z,33.82
2022-09-09T22:04:52.202Z,33.83
2022-09-09T22:07:23.035Z,33.81
2022-09-09T22:09:53.615Z,33.81
2022-09-09T22:12:23.742Z,33.80
2022-09-09T22:14:54.746Z,33.80
2022-09-09T22:17:26.046Z,33.80
2022-09-09T22:19:58.522Z,33.79
2022-09-09T22:22:29.264Z,33.79
2022-09-09T22:24:59.419Z,33.78
2022-09-09T22:27:30.271Z,33.78
2022-09-09T22:30:01.030Z,33.78
2022-09-09T22:32:31.681Z,33.78
2022-09-09T22:35:03.842Z,33.78
2022-09-09T22:37:35.252Z,33.78
2022-09-09T22:40:06.792Z,33.77
2022-09-09T22:42:38.137Z,33.77
2022-09-09T22:45:10.420Z,33.76
2022-09-09T22:47:42.998Z,33.76
2022-09-09T22:50:15.544Z,33.75
2022-09-09T22:52:45.712Z,33.75
2022-09-09T22:55:15.611Z,33.73
2022-09-09T22:57:46.100Z,33.72
2022-09-09T23:00:17.361Z,33.72
2022-09-09T23:02:51.064Z,33.72
2022-09-09T23:05:25.612Z,33.72
2022-09-09T23:07:58.746Z,33.70
2022-09-09T23:10:29.749Z,33.71
2022-09-09T23:13:00.125Z,33.70
2022-09-09T23:15:31.906Z,33.71
2022-09-09T23:18:02.083Z,33.71
2022-09-09T23:20:33.867Z,33.71
2022-09-09T23:23:03.839Z,33.69
2022-09-09T23:25:34.372Z,33.68
2022-09-09T23:28:04.795Z,33.68
2022-09-09T23:30:35.954Z,33.68
2022-09-09T23:33:06.472Z,33.67
2022-09-09T23:35:39.773Z,33.69
2022-09-09T23:38:10.863Z,33.66
2022-09-09T23:40:41.580Z,33.67
2022-09-09T23:43:12.123Z,33.66
2022-09-09T23:45:42.705Z,33.66
2022-09-09T23:48:13.173Z,33.65
2022-09-09T23:50:45.885Z,33.65
2022-09-09T23:53:16.218Z,33.64
2022-09-09T23:55:47.018Z,33.62
2022-09-09T23:58:17.474Z,33.63
